Time;durP1;ratioP1;P1;durP2;ratioP2;P2;SDS_P1;SDS_P2;PMS_P1;PMS_P2;Temp;Humidity;BMP_temperature;BMP_pressure;BME280_temperature;BME280_humidity;BME280_pressure;Samples;Min_cycle;Max_cycle;Signal;HPM_P1;HPM_P2
2023/09/13 00:01:01;;;;;;;19.50;17.47;;;22.00;82.60;;;;;;5069825;28;20438;-73
2023/09/13 00:03:29;;;;;;;14.20;12.67;;;21.80;83.30;;;;;;5072042;28;20434;-73
2023/09/13 00:05:58;;;;;;;14.90;13.40;;;21.80;83.30;;;;;;5072036;28;20519;-72
2023/09/13 00:08:26;;;;;;;12.80;11.50;;;21.90;83.20;;;;;;5072387;28;20431;-73
2023/09/13 00:11:01;;;;;;;13.50;11.30;;;21.80;83.10;;;;;;5071953;28;20445;-73
2023/09/13 00:13:32;;;;;;;20.37;15.77;;;21.90;83.20;;;;;;5068575;28;20459;-73
2023/09/13 00:16:00;;;;;;;18.13;16.33;;;22.10;82.60;;;;;;5052661;28;20429;-73
2023/09/13 00:18:28;;;;;;;30.20;27.00;;;22.10;82.40;;;;;;5063563;28;20451;-73
2023/09/13 00:20:56;;;;;;;18.43;16.53;;;22.10;82.80;;;;;;5071497;28;20528;-73
2023/09/13 00:23:25;;;;;;;11.37;10.27;;;22.10;82.70;;;;;;5056422;28;20463;-73
2023/09/13 00:25:53;;;;;;;11.67;10.47;;;22.20;82.60;;;;;;5056396;28;20439;-73
2023/09/13 00:28:21;;;;;;;12.03;10.83;;;22.40;81.90;;;;;;5055833;28;20466;-73
2023/09/13 00:30:51;;;;;;;13.90;12.10;;;22.60;81.00;;;;;;5068560;28;20523;-72
2023/09/13 00:33:19;;;;;;;18.83;17.10;;;22.60;80.80;;;;;;5053747;28;20542;-73
2023/09/13 00:35:47;;;;;;;15.07;13.83;;;22.40;81.00;;;;;;5052318;28;20506;-73
2023/09/13 00:38:16;;;;;;;17.53;15.73;;;22.20;81.60;;;;;;5071353;28;20504;-73
2023/09/13 00:40:44;;;;;;;15.97;14.37;;;22.00;82.20;;;;;;5077940;28;20515;-73
2023/09/13 00:43:12;;;;;;;14.00;12.70;;;22.00;82.40;;;;;;5070895;28;21006;-73
2023/09/13 00:45:41;;;;;;;19.60;17.57;;;22.10;82.50;;;;;;5069647;28;20444;-73
2023/09/13 00:48:10;;;;;;;10.43;9.40;;;22.20;82.00;;;;;;5062822;28;20453;-73
2023/09/13 00:50:43;;;;;;;9.70;8.77;;;22.40;81.40;;;;;;5067437;28;20440;-73
2023/09/13 00:53:18;;;;;;;11.30;9.20;;;22.50;81.50;;;;;;5051409;28;20460;-73
2023/09/13 00:55:49;;;;;;;9.53;8.57;;;22.80;81.10;;;;;;5085000;28;20458;-73
2023/09/13 00:58:18;;;;;;;8.97;8.07;;;22.90;80.10;;;;;;5075935;28;20470;-73
2023/09/13 01:00:49;;;;;;;8.40;7.40;;;22.90;80.30;;;;;;5062610;28;20453;-73
2023/09/13 01:03:19;;;;;;;8.70;7.80;;;22.90;80.10;;;;;;5052815;28;21016;-73
2023/09/13 01:05:49;;;;;;;9.60;8.70;;;22.90;80.20;;;;;;5068433;28;20545;-73
2023/09/13 01:08:17;;;;;;;9.70;8.90;;;22.90;80.20;;;;;;5074226;28;20462;-73
2023/09/13 01:10:45;;;;;;;8.20;7.53;;;22.80;80.10;;;;;;5070738;28;20836;-73
2023/09/13 01:13:13;;;;;;;8.77;7.87;;;22.80;80.40;;;;;;5070181;28;21191;-73
2023/09/13 01:15:51;;;;;;;8.17;7.40;;;22.80;80.40;;;;;;5070816;28;20531;-73
2023/09/13 01:18:26;;;;;;;8.50;7.70;;;22.70;80.60;;;;;;5071647;28;20436;-73
2023/09/13 01:21:14;;;;;;;7.50;6.90;;;22.80;80.50;;;;;;5062878;28;20484;-73
2023/09/13 01:24:09;;;;;;;8.83;8.03;;;22.80;80.60;;;;;;5070343;28;20990;-73
2023/09/13 01:27:01;;;;;;;8.50;7.57;;;22.70;80.30;;;;;;5052624;28;20451;-73
2023/09/13 01:29:32;;;;;;;7.90;7.30;;;22.80;80.30;;;;;;5071126;28;20527;-73
2023/09/13 01:32:00;;;;;;;8.93;8.13;;;22.70;80.50;;;;;;5064825;28;20927;-73
2023/09/13 01:34:29;;;;;;;7.93;7.23;;;22.70;80.60;;;;;;5067753;28;20463;-73
2023/09/13 01:36:57;;;;;;;7.80;7.10;;;22.70;80.70;;;;;;5069298;28;20469;-73
2023/09/13 01:39:25;;;;;;;8.10;7.43;;;22.50;80.90;;;;;;5069407;28;20979;-73
2023/09/13 01:41:57;;;;;;;8.00;7.40;;;22.50;81.20;;;;;;5054225;28;20445;-73
2023/09/13 01:44:28;;;;;;;8.70;7.80;;;22.40;81.60;;;;;;5050693;28;20470;-73
2023/09/13 01:46:59;;;;;;;8.83;7.50;;;22.30;81.80;;;;;;5069152;28;20966;-73
2023/09/13 01:49:29;;;;;;;7.43;6.83;;;22.30;82.00;;;;;;5070914;28;20447;-73
2023/09/13 01:51:58;;;;;;;8.30;7.23;;;22.40;81.60;;;;;;5064317;28;20949;-73
2023/09/13 01:54:26;;;;;;;6.67;6.17;;;22.40;81.10;;;;;;5056242;28;20527;-73
2023/09/13 01:56:54;;;;;;;8.03;7.23;;;22.30;81.50;;;;;;5050508;28;20435;-73
2023/09/13 01:59:23;;;;;;;7.73;7.03;;;22.40;81.30;;;;;;5067195;28;20818;-73
2023/09/13 02:01:51;;;;;;;14.30;6.97;;;22.40;80.90;;;;;;5069320;28;20447;-73
2023/09/13 02:04:20;;;;;;;6.63;6.03;;;22.50;80.70;;;;;;5084294;28;20560;-73
2023/09/13 02:06:49;;;;;;;7.80;6.80;;;22.50;80.70;;;;;;5077466;28;20443;-74
2023/09/13 02:09:17;;;;;;;8.87;6.17;;;22.50;80.50;;;;;;5072741;28;20448;-73
2023/09/13 02:11:45;;;;;;;7.93;6.87;;;22.40;80.50;;;;;;5074417;28;20952;-73
2023/09/13 02:14:13;;;;;;;6.03;5.53;;;22.30;81.10;;;;;;5073882;28;20450;-73
2023/09/13 02:16:42;;;;;;;7.00;6.10;;;22.10;81.10;;;;;;5073407;28;20454;-73
2023/09/13 02:19:10;;;;;;;6.43;5.83;;;21.80;82.20;;;;;;5072272;28;20504;-73
2023/09/13 02:21:41;;;;;;;5.60;4.83;;;21.60;82.50;;;;;;5072166;28;20523;-73
2023/09/13 02:24:09;;;;;;;4.77;4.37;;;21.30;83.00;;;;;;5076120;28;20469;-73
2023/09/13 02:26:39;;;;;;;6.30;5.37;;;21.10;83.60;;;;;;5053332;28;20462;-73
2023/09/13 02:29:08;;;;;;;5.73;5.23;;;21.00;84.20;;;;;;5067076;28;20462;-73
2023/09/13 02:31:36;;;;;;;5.87;5.30;;;21.10;84.10;;;;;;5073737;28;20463;-73
2023/09/13 02:34:05;;;;;;;9.07;5.47;;;21.30;83.90;;;;;;5072827;28;20469;-73
2023/09/13 02:36:33;;;;;;;9.33;5.90;;;21.40;83.10;;;;;;5073992;28;20449;-73
2023/09/13 02:39:03;;;;;;;12.30;9.40;;;21.40;83.10;;;;;;5072850;28;20448;-73
2023/09/13 02:41:31;;;;;;;21.00;18.87;;;21.40;83.20;;;;;;5071660;28;20506;-73
2023/09/13 02:43:59;;;;;;;17.83;14.63;;;21.60;82.80;;;;;;5072291;28;20985;-73
2023/09/13 02:46:28;;;;;;;18.53;16.67;;;21.50;83.10;;;;;;5073148;28;20962;-73
2023/09/13 02:48:56;;;;;;;16.83;14.87;;;21.60;83.10;;;;;;5073497;28;20439;-73
2023/09/13 02:51:25;;;;;;;18.40;16.47;;;21.60;83.10;;;;;;5074367;28;20446;-73
2023/09/13 02:53:53;;;;;;;14.90;12.47;;;21.70;82.70;;;;;;5076913;28;20457;-73
2023/09/13 02:56:22;;;;;;;12.13;10.67;;;21.80;82.60;;;;;;5070008;28;20965;-73
2023/09/13 02:58:51;;;;;;;12.20;10.97;;;21.90;82.30;;;;;;5073493;28;20426;-73
2023/09/13 03:01:19;;;;;;;8.77;7.90;;;22.10;81.80;;;;;;5073851;28;20446;-73
2023/09/13 03:03:47;;;;;;;8.53;7.73;;;22.20;81.40;;;;;;5072114;28;20479;-73
2023/09/13 03:06:16;;;;;;;8.27;7.47;;;22.20;81.20;;;;;;5072445;28;20992;-73
2023/09/13 03:08:45;;;;;;;7.30;6.60;;;22.20;81.10;;;;;;5072301;28;20505;-73
2023/09/13 03:11:15;;;;;;;7.23;6.53;;;22.20;80.90;;;;;;5073181;28;20513;-73
2023/09/13 03:13:46;;;;;;;6.80;6.20;;;22.20;81.00;;;;;;5064938;28;20467;-73
2023/09/13 03:16:16;;;;;;;7.53;6.83;;;22.00;80.90;;;;;;5071961;28;20463;-73
2023/09/13 03:18:46;;;;;;;7.47;5.90;;;22.00;81.40;;;;;;5071432;28;20861;-73
2023/09/13 03:21:18;;;;;;;6.63;5.93;;;22.00;81.30;;;;;;5071465;28;20897;-73
2023/09/13 03:23:48;;;;;;;6.17;5.60;;;21.90;81.50;;;;;;5078493;28;20523;-73
2023/09/13 03:26:18;;;;;;;6.87;6.20;;;21.90;81.70;;;;;;5068953;28;20939;-73
2023/09/13 03:28:49;;;;;;;6.63;6.00;;;22.00;81.40;;;;;;5080412;28;20957;-74
2023/09/13 03:31:19;;;;;;;6.80;6.20;;;22.00;81.50;;;;;;5071382;28;20847;-73
2023/09/13 03:33:49;;;;;;;6.77;6.17;;;22.00;81.30;;;;;;5069174;28;20454;-72
2023/09/13 03:36:18;;;;;;;7.37;6.70;;;22.00;81.30;;;;;;5071583;28;20487;-73
2023/09/13 03:38:50;;;;;;;7.80;7.10;;;21.90;81.70;;;;;;5066157;28;20461;-73
2023/09/13 03:41:23;;;;;;;7.30;6.63;;;21.90;81.90;;;;;;5079954;28;20495;-73
2023/09/13 03:43:53;;;;;;;8.23;7.40;;;21.80;82.10;;;;;;5087652;28;20559;-74
2023/09/13 03:46:21;;;;;;;9.73;8.53;;;21.80;82.00;;;;;;5071494;28;20445;-73
2023/09/13 03:48:54;;;;;;;8.33;7.50;;;21.80;81.80;;;;;;5063546;28;20462;-73
2023/09/13 03:51:23;;;;;;;7.30;6.70;;;21.80;82.30;;;;;;5069283;28;20446;-73
2023/09/13 03:53:51;;;;;;;7.93;7.23;;;21.80;82.40;;;;;;5087789;28;20953;-73
2023/09/13 03:56:19;;;;;;;11.47;9.97;;;21.80;82.30;;;;;;5071360;28;20461;-73
2023/09/13 03:58:48;;;;;;;22.87;19.30;;;21.70;82.60;;;;;;5055034;28;20487;-74
2023/09/13 04:01:18;;;;;;;26.93;24.10;;;21.80;82.60;;;;;;5054430;28;20805;-73
2023/09/13 04:03:47;;;;;;;24.83;22.10;;;21.80;82.50;;;;;;5066783;28;20817;-73
2023/09/13 04:06:17;;;;;;;18.03;16.20;;;21.80;82.50;;;;;;5072024;28;20430;-73
2023/09/13 04:08:45;;;;;;;13.80;12.50;;;21.80;82.50;;;;;;5072067;28;20516;-73
2023/09/13 04:11:13;;;;;;;17.03;14.83;;;21.90;82.50;;;;;;5077627;28;20481;-73
2023/09/13 04:13:42;;;;;;;11.93;10.83;;;21.90;82.30;;;;;;5059381;28;20522;-74
2023/09/13 04:16:15;;;;;;;12.53;10.13;;;22.00;82.00;;;;;;5050924;28;20530;-73
2023/09/13 04:18:45;;;;;;;10.67;9.57;;;22.10;81.80;;;;;;5061599;28;20456;-73
2023/09/13 04:21:14;;;;;;;12.73;11.40;;;22.10;81.60;;;;;;5070310;28;20490;-73
2023/09/13 04:23:42;;;;;;;14.77;12.07;;;22.10;81.60;;;;;;5060588;28;20477;-73
2023/09/13 04:26:11;;;;;;;11.70;10.43;;;22.00;81.70;;;;;;5054278;28;20462;-73
2023/09/13 04:28:39;;;;;;;10.23;9.23;;;22.00;81.80;;;;;;5071103;28;20509;-73
2023/09/13 04:31:07;;;;;;;10.80;9.77;;;22.00;81.80;;;;;;5063330;28;20455;-73
2023/09/13 04:33:52;;;;;;;12.27;11.07;;;22.00;82.00;;;;;;5077926;28;20467;-73
2023/09/13 04:36:24;;;;;;;11.93;10.73;;;21.90;82.10;;;;;;5065588;28;20473;-73
2023/09/13 04:38:55;;;;;;;13.33;10.33;;;21.90;82.00;;;;;;5059767;28;20584;-73
2023/09/13 04:41:25;;;;;;;8.37;7.67;;;21.90;82.00;;;;;;5058394;28;20487;-72
2023/09/13 04:43:54;;;;;;;9.73;8.43;;;21.90;82.30;;;;;;5069562;28;20472;-73
2023/09/13 04:46:22;;;;;;;8.20;7.40;;;21.90;82.10;;;;;;5059820;28;20455;-73
2023/09/13 04:48:52;;;;;;;8.60;7.80;;;21.90;82.30;;;;;;5061236;28;20476;-72
2023/09/13 04:51:20;;;;;;;9.87;7.80;;;21.90;82.20;;;;;;5059725;28;20541;-73
2023/09/13 04:53:49;;;;;;;9.47;8.40;;;21.90;82.20;;;;;;5059203;28;21023;-77
2023/09/13 04:56:17;;;;;;;7.53;6.73;;;21.90;82.30;;;;;;5063539;28;20455;-74
2023/09/13 04:58:47;;;;;;;8.53;7.83;;;21.90;82.30;;;;;;5056927;28;20535;-76
2023/09/13 05:01:16;;;;;;;8.30;7.60;;;21.90;82.30;;;;;;5058022;28;20457;-74
2023/09/13 05:03:46;;;;;;;8.57;7.87;;;21.90;82.20;;;;;;5055343;28;20468;-76
2023/09/13 05:06:16;;;;;;;8.60;7.70;;;21.80;82.30;;;;;;5059678;28;20453;-77
2023/09/13 05:08:44;;;;;;;8.60;7.03;;;21.80;82.30;;;;;;5063687;28;20460;-76
2023/09/13 05:11:13;;;;;;;8.17;7.37;;;21.80;82.50;;;;;;5059772;28;20473;-74
2023/09/13 05:13:41;;;;;;;8.77;7.83;;;21.80;82.30;;;;;;5059554;28;20461;-77
2023/09/13 05:16:12;;;;;;;8.27;7.20;;;21.80;82.30;;;;;;5056544;28;20473;-73
2023/09/13 05:18:41;;;;;;;9.27;7.97;;;21.70;82.50;;;;;;5059246;28;21018;-76
2023/09/13 05:21:09;;;;;;;9.90;8.20;;;21.70;82.60;;;;;;5061850;28;20965;-76
2023/09/13 05:23:39;;;;;;;8.00;7.30;;;21.70;82.50;;;;;;5065962;28;20526;-76
2023/09/13 05:26:07;;;;;;;9.70;8.80;;;21.70;82.60;;;;;;5066866;28;20478;-76
2023/09/13 05:28:35;;;;;;;9.07;8.10;;;21.70;82.80;;;;;;5070759;28;20948;-76
2023/09/13 05:31:04;;;;;;;9.13;8.00;;;21.70;82.70;;;;;;5062132;28;20443;-76
2023/09/13 05:33:33;;;;;;;8.40;7.40;;;21.70;82.70;;;;;;5065225;28;20449;-76
2023/09/13 05:36:04;;;;;;;8.40;7.50;;;21.70;82.70;;;;;;5069778;28;20427;-76
2023/09/13 05:38:32;;;;;;;9.10;8.20;;;21.70;82.90;;;;;;5061253;28;20834;-76
2023/09/13 05:41:07;;;;;;;10.63;8.70;;;21.70;82.80;;;;;;5065045;28;20453;-77
2023/09/13 05:43:35;;;;;;;7.57;6.93;;;21.70;83.00;;;;;;5072115;28;20445;-74
2023/09/13 05:46:04;;;;;;;12.40;7.83;;;21.70;83.00;;;;;;5072711;28;20535;-76
2023/09/13 05:48:32;;;;;;;8.07;7.27;;;21.70;82.90;;;;;;5073992;28;20469;-77
2023/09/13 05:51:01;;;;;;;9.63;8.40;;;21.80;82.70;;;;;;5069170;28;20851;-76
2023/09/13 05:53:30;;;;;;;8.10;7.40;;;21.80;82.60;;;;;;5068675;28;20519;-76
2023/09/13 05:55:58;;;;;;;10.00;8.50;;;21.90;82.60;;;;;;5066621;28;20451;-77
2023/09/13 05:58:27;;;;;;;9.43;8.53;;;21.80;82.80;;;;;;5068894;28;20458;-75
2023/09/13 06:00:57;;;;;;;8.30;7.60;;;21.80;82.70;;;;;;5072035;28;20446;-76
2023/09/13 06:03:25;;;;;;;9.20;8.40;;;21.90;82.80;;;;;;5055958;28;20444;-76
2023/09/13 06:05:54;;;;;;;10.40;9.40;;;21.90;82.90;;;;;;5054955;28;20509;-76
2023/09/13 06:08:22;;;;;;;8.67;7.67;;;21.90;83.00;;;;;;5057322;28;20510;-77
2023/09/13 06:10:50;;;;;;;8.87;8.03;;;21.90;83.00;;;;;;5074499;28;20777;-76
2023/09/13 06:13:18;;;;;;;10.30;8.97;;;21.90;83.10;;;;;;5058748;28;21195;-76
2023/09/13 06:15:48;;;;;;;9.07;8.27;;;21.80;83.30;;;;;;5069599;28;20488;-76
2023/09/13 06:18:16;;;;;;;8.97;8.17;;;21.80;83.20;;;;;;5072603;28;20526;-77
2023/09/13 06:20:45;;;;;;;9.23;8.33;;;21.90;83.10;;;;;;5072527;28;20473;-77
2023/09/13 06:23:35;;;;;;;9.33;8.53;;;22.00;82.90;;;;;;5071539;28;20934;-77
2023/09/13 06:26:03;;;;;;;9.20;8.27;;;22.00;83.10;;;;;;5064304;28;21322;-77
2023/09/13 06:28:32;;;;;;;9.03;8.23;;;22.00;83.30;;;;;;5066809;28;20461;-76
2023/09/13 06:31:03;;;;;;;8.43;7.70;;;22.10;83.10;;;;;;5074174;28;20786;-76
2023/09/13 06:33:33;;;;;;;9.93;7.87;;;22.10;83.10;;;;;;5063220;28;20529;-76
2023/09/13 06:36:06;;;;;;;8.37;7.57;;;22.10;83.20;;;;;;5071875;28;20461;-76
2023/09/13 06:38:36;;;;;;;8.30;7.60;;;22.20;83.10;;;;;;5066915;28;20914;-76
2023/09/13 06:41:05;;;;;;;10.13;8.00;;;22.40;82.80;;;;;;5069997;28;20505;-73
2023/09/13 06:43:36;;;;;;;9.53;6.97;;;22.40;82.50;;;;;;5062526;28;20463;-74
2023/09/13 06:46:07;;;;;;;9.57;7.93;;;22.60;82.30;;;;;;5068617;28;20519;-73
2023/09/13 06:48:37;;;;;;;10.17;9.17;;;22.80;81.60;;;;;;5071873;28;20458;-77
2023/09/13 06:51:08;;;;;;;9.30;8.50;;;23.00;81.00;;;;;;5070913;28;20439;-75
2023/09/13 06:53:40;;;;;;;9.07;8.27;;;23.10;80.40;;;;;;5071655;28;20446;-72
2023/09/13 06:56:09;;;;;;;10.53;9.73;;;23.20;80.30;;;;;;5069194;28;20946;-72
2023/09/13 06:58:41;;;;;;;8.13;7.33;;;23.30;79.90;;;;;;5068400;28;20526;-71
2023/09/13 07:01:14;;;;;;;8.07;7.27;;;23.50;79.10;;;;;;5065776;28;20455;-71
2023/09/13 07:04:03;;;;;;;7.17;6.07;;;23.70;78.90;;;;;;5070190;28;20457;-77
2023/09/13 07:06:36;;;;;;;6.97;6.37;;;23.90;78.40;;;;;;5070369;28;20983;-77
2023/09/13 07:09:05;;;;;;;9.63;7.47;;;24.00;78.10;;;;;;5067211;28;20536;-73
2023/09/13 07:11:33;;;;;;;7.00;6.40;;;24.10;77.40;;;;;;5064174;28;20548;-73
2023/09/13 07:14:02;;;;;;;11.40;8.73;;;24.20;77.00;;;;;;5067109;28;20448;-73
2023/09/13 07:16:32;;;;;;;7.83;7.10;;;24.30;77.00;;;;;;5069243;28;21001;-74
2023/09/13 07:19:03;;;;;;;7.23;6.63;;;24.30;76.80;;;;;;5071179;28;20441;-74
2023/09/13 07:21:31;;;;;;;7.20;6.30;;;24.20;76.90;;;;;;5067355;28;20510;-74
2023/09/13 07:24:00;;;;;;;7.57;6.73;;;24.20;77.20;;;;;;5070490;28;20440;-74
2023/09/13 07:26:28;;;;;;;7.73;6.90;;;24.20;77.00;;;;;;5067909;28;20999;-80
2023/09/13 07:28:56;;;;;;;7.27;6.20;;;24.30;76.80;;;;;;5069535;28;20454;-73
2023/09/13 07:31:24;;;;;;;7.20;6.23;;;24.40;76.70;;;;;;5070011;28;20978;-74
2023/09/13 07:33:54;;;;;;;7.00;6.33;;;24.40;76.40;;;;;;5068527;28;20487;-74
2023/09/13 07:36:24;;;;;;;6.73;6.13;;;24.50;76.50;;;;;;5065699;28;20448;-73
2023/09/13 07:38:53;;;;;;;7.17;6.57;;;24.60;76.20;;;;;;5069182;28;20804;-73
2023/09/13 07:41:21;;;;;;;6.57;5.97;;;24.60;76.20;;;;;;5063860;28;20461;-74
2023/09/13 07:43:49;;;;;;;7.53;6.37;;;24.70;76.30;;;;;;5062016;28;20520;-75
2023/09/13 07:46:17;;;;;;;7.63;6.93;;;24.70;76.30;;;;;;5068988;28;20502;-77
2023/09/13 07:48:46;;;;;;;8.07;6.40;;;24.70;76.60;;;;;;5069656;28;20457;-75
2023/09/13 07:51:15;;;;;;;8.30;7.60;;;24.70;76.90;;;;;;5061748;28;20444;-73
2023/09/13 07:53:45;;;;;;;7.90;7.20;;;24.70;76.70;;;;;;5070929;28;21000;-73
2023/09/13 07:56:14;;;;;;;6.80;6.20;;;24.90;76.40;;;;;;5071313;28;20570;-72
2023/09/13 07:58:42;;;;;;;10.60;8.70;;;24.90;76.10;;;;;;5070478;28;20446;-73
2023/09/13 08:01:11;;;;;;;9.47;8.67;;;24.90;76.40;;;;;;5064349;28;20901;-73
2023/09/13 08:03:40;;;;;;;7.80;7.00;;;24.90;76.60;;;;;;5071220;28;20534;-72
2023/09/13 08:06:08;;;;;;;7.00;6.33;;;25.00;76.00;;;;;;5067376;28;20480;-73
2023/09/13 08:08:38;;;;;;;7.23;6.63;;;25.00;76.50;;;;;;5070947;28;20484;-72
2023/09/13 08:11:06;;;;;;;5.80;5.30;;;25.10;76.00;;;;;;5071237;28;20436;-72
2023/09/13 08:13:34;;;;;;;6.80;5.60;;;25.20;75.60;;;;;;5069020;28;20547;-75
2023/09/13 08:16:03;;;;;;;6.27;5.77;;;25.20;75.00;;;;;;5071573;28;20443;-74
2023/09/13 08:18:31;;;;;;;6.30;5.70;;;25.20;75.20;;;;;;5067343;28;20470;-73
2023/09/13 08:20:59;;;;;;;7.23;6.30;;;25.20;74.70;;;;;;5065508;28;20549;-75
2023/09/13 08:23:30;;;;;;;6.57;6.00;;;25.20;74.70;;;;;;5070478;28;20462;-72
2023/09/13 08:25:59;;;;;;;6.83;6.00;;;25.30;74.50;;;;;;5071516;28;20465;-74
2023/09/13 08:28:49;;;;;;;5.90;5.50;;;25.30;74.70;;;;;;5068881;28;20453;-74
2023/09/13 08:31:18;;;;;;;7.13;6.10;;;25.20;75.10;;;;;;5060365;28;20465;-76
2023/09/13 08:33:46;;;;;;;6.17;5.70;;;25.30;75.00;;;;;;5065069;28;20524;-72
2023/09/13 08:36:17;;;;;;;6.37;5.93;;;25.30;74.80;;;;;;5067594;28;20765;-73
2023/09/13 08:38:45;;;;;;;6.90;6.30;;;25.20;74.90;;;;;;5069959;28;20441;-73
2023/09/13 08:41:16;;;;;;;6.80;6.30;;;25.20;75.00;;;;;;5070108;28;20465;-76
2023/09/13 08:43:45;;;;;;;6.67;6.07;;;25.10;75.00;;;;;;5066434;28;20513;-73
2023/09/13 08:46:15;;;;;;;6.93;6.23;;;25.00;75.30;;;;;;5068291;28;20509;-73
2023/09/13 08:48:44;;;;;;;6.93;6.33;;;25.10;75.30;;;;;;5070411;28;20480;-76
2023/09/13 08:51:14;;;;;;;7.00;6.40;;;25.20;75.00;;;;;;5072755;28;20448;-73
2023/09/13 08:53:44;;;;;;;6.90;6.40;;;25.20;75.50;;;;;;5069016;28;20495;-74
2023/09/13 08:56:13;;;;;;;8.20;7.40;;;25.20;76.40;;;;;;5068668;28;20448;-74
2023/09/13 08:58:42;;;;;;;7.83;7.13;;;25.20;76.30;;;;;;5066004;28;20454;-73
2023/09/13 09:01:12;;;;;;;7.30;6.70;;;25.20;76.60;;;;;;5065221;28;20844;-73
2023/09/13 09:03:41;;;;;;;7.90;7.20;;;25.20;76.70;;;;;;5066702;28;20456;-80
2023/09/13 09:06:12;;;;;;;6.50;6.10;;;25.20;76.50;;;;;;5069558;28;20462;-74
2023/09/13 09:08:40;;;;;;;7.90;6.50;;;25.30;76.40;;;;;;5069000;28;20445;-74
2023/09/13 09:11:10;;;;;;;7.27;6.63;;;25.30;76.10;;;;;;5070282;28;20446;-76
2023/09/13 09:13:39;;;;;;;8.03;7.30;;;25.40;76.00;;;;;;5066291;28;20565;-73
2023/09/13 09:16:11;;;;;;;7.33;6.73;;;25.40;76.00;;;;;;5068314;28;20776;-77
2023/09/13 09:18:40;;;;;;;7.27;6.67;;;25.40;76.00;;;;;;5066400;28;20462;-77
2023/09/13 09:21:09;;;;;;;12.40;10.40;;;25.30;76.20;;;;;;5068473;28;20539;-77
2023/09/13 09:23:39;;;;;;;9.83;8.90;;;25.30;76.30;;;;;;5069733;28;20457;-76
2023/09/13 09:26:07;;;;;;;8.83;8.10;;;25.20;76.90;;;;;;5069222;28;20945;-78
2023/09/13 09:28:36;;;;;;;7.67;6.97;;;25.10;76.90;;;;;;5068754;28;20452;-78
2023/09/13 09:31:05;;;;;;;7.53;6.93;;;25.00;77.40;;;;;;5068556;28;20522;-78
2023/09/13 09:33:38;;;;;;;7.80;6.70;;;25.00;77.50;;;;;;5069214;28;20450;-76
2023/09/13 09:36:09;;;;;;;9.00;7.80;;;24.90;77.50;;;;;;5069295;28;20788;-78
2023/09/13 09:38:37;;;;;;;8.07;7.37;;;24.90;77.30;;;;;;5059546;28;20481;-77
2023/09/13 09:41:06;;;;;;;7.30;6.60;;;24.90;77.40;;;;;;5051447;28;20449;-77
2023/09/13 09:43:36;;;;;;;7.37;6.77;;;24.90;77.50;;;;;;5057474;28;20445;-78
2023/09/13 09:46:04;;;;;;;7.80;7.00;;;24.90;77.70;;;;;;5067548;28;20476;-77
2023/09/13 09:48:32;;;;;;;10.23;9.03;;;24.80;78.30;;;;;;5070456;28;20464;-77
2023/09/13 09:51:02;;;;;;;7.87;7.07;;;24.70;78.70;;;;;;5072226;28;20445;-77
2023/09/13 09:53:30;;;;;;;9.97;9.07;;;24.50;79.00;;;;;;5069079;28;20783;-76
2023/09/13 09:55:58;;;;;;;7.40;6.80;;;24.40;79.30;;;;;;5064035;28;20452;-78
2023/09/13 09:58:28;;;;;;;8.13;7.43;;;24.30;79.70;;;;;;5063418;28;20445;-78
2023/09/13 10:00:57;;;;;;;7.30;6.70;;;24.30;79.90;;;;;;5069636;28;20487;-77
2023/09/13 10:03:25;;;;;;;8.33;7.63;;;24.20;79.00;;;;;;5063932;28;20465;-77
2023/09/13 10:05:55;;;;;;;8.57;7.20;;;24.20;79.20;;;;;;5068181;28;20468;-76
2023/09/13 10:08:41;;;;;;;6.80;6.10;;;24.20;79.90;;;;;;5063715;28;20474;-77
2023/09/13 10:11:16;;;;;;;7.50;6.90;;;24.20;79.70;;;;;;5065047;28;20506;-78
2023/09/13 10:13:45;;;;;;;5.90;5.50;;;24.40;79.20;;;;;;5062798;28;20453;-77
2023/09/13 10:16:15;;;;;;;8.20;7.27;;;24.50;78.80;;;;;;5055455;28;21009;-78
2023/09/13 10:18:46;;;;;;;7.80;7.20;;;24.70;78.30;;;;;;5070610;28;20574;-77
2023/09/13 10:21:16;;;;;;;8.63;7.73;;;24.80;77.90;;;;;;5069706;28;20508;-78
2023/09/13 10:23:50;;;;;;;8.17;7.47;;;24.80;78.60;;;;;;5070366;28;20422;-78
2023/09/13 10:26:20;;;;;;;8.63;7.83;;;24.80;78.70;;;;;;5080260;28;20953;-77
2023/09/13 10:28:54;;;;;;;8.73;7.77;;;25.00;78.40;;;;;;5090680;28;20462;-78
2023/09/13 10:31:28;;;;;;;10.30;8.50;;;25.00;78.00;;;;;;5071374;28;20445;-77
2023/09/13 10:34:05;;;;;;;7.30;6.70;;;25.20;77.60;;;;;;5060059;28;20456;-78
2023/09/13 10:36:37;;;;;;;8.77;6.97;;;25.30;77.40;;;;;;5059578;28;20449;-78
2023/09/13 10:39:14;;;;;;;8.40;7.67;;;25.50;76.30;;;;;;5055036;28;20511;-78
2023/09/13 10:41:53;;;;;;;8.60;7.73;;;25.60;76.80;;;;;;5061448;28;20448;-76
2023/09/13 10:44:21;;;;;;;10.07;8.50;;;25.70;76.40;;;;;;5061321;28;20453;-78
2023/09/13 10:46:50;;;;;;;8.80;7.90;;;25.80;76.30;;;;;;5062359;28;20845;-77
2023/09/13 10:49:19;;;;;;;9.90;8.80;;;25.70;76.40;;;;;;5060306;28;20854;-78
2023/09/13 10:51:49;;;;;;;7.47;6.70;;;25.70;76.40;;;;;;5053548;28;20448;-77
2023/09/13 10:54:20;;;;;;;9.57;8.47;;;25.60;76.70;;;;;;5054067;28;20449;-76
2023/09/13 10:56:49;;;;;;;7.10;6.50;;;25.50;77.20;;;;;;5065869;28;20460;-78
2023/09/13 10:59:19;;;;;;;8.53;7.30;;;25.60;76.90;;;;;;5069249;28;20458;-78
2023/09/13 11:01:47;;;;;;;7.37;6.77;;;25.70;76.60;;;;;;5067449;28;20456;-77
2023/09/13 11:04:16;;;;;;;7.83;7.13;;;25.90;76.40;;;;;;5065154;28;20450;-78
2023/09/13 11:06:46;;;;;;;9.03;8.33;;;26.00;75.60;;;;;;5065933;28;20469;-77
2023/09/13 11:09:16;;;;;;;8.30;7.50;;;26.10;75.20;;;;;;5065417;28;20473;-76
2023/09/13 11:11:49;;;;;;;9.87;9.03;;;26.20;75.50;;;;;;5062843;28;20532;-77
2023/09/13 11:14:19;;;;;;;8.17;7.37;;;26.20;74.10;;;;;;5064403;28;21058;-79
2023/09/13 11:16:47;;;;;;;11.57;7.43;;;26.30;74.80;;;;;;5065767;28;20502;-77
2023/09/13 11:19:16;;;;;;;7.90;7.13;;;26.40;74.90;;;;;;5064479;28;20494;-77
2023/09/13 11:21:51;;;;;;;8.50;7.63;;;26.50;74.60;;;;;;5067641;28;20489;-78
2023/09/13 11:24:40;;;;;;;8.20;7.07;;;26.60;74.60;;;;;;5064477;28;20454;-78
2023/09/13 11:27:29;;;;;;;7.90;7.20;;;26.70;74.10;;;;;;5067168;28;20557;-81
2023/09/13 11:29:59;;;;;;;7.03;6.43;;;26.80;73.80;;;;;;5064882;28;20464;-81
2023/09/13 11:32:31;;;;;;;7.53;6.83;;;26.90;73.60;;;;;;5068485;28;20778;-78
2023/09/13 11:35:01;;;;;;;7.10;6.40;;;26.90;73.50;;;;;;5067485;28;20451;-75
2023/09/13 11:37:33;;;;;;;7.17;6.57;;;27.00;73.30;;;;;;5065088;28;20452;-76
2023/09/13 11:40:11;;;;;;;8.03;7.43;;;27.00;73.10;;;;;;5061479;28;20525;-77
2023/09/13 11:42:42;;;;;;;9.07;8.27;;;27.10;72.80;;;;;;5062346;28;20540;-76
2023/09/13 11:45:14;;;;;;;7.03;6.50;;;27.10;72.20;;;;;;5066459;28;20948;-79
2023/09/13 11:48:02;;;;;;;6.33;5.83;;;27.00;72.50;;;;;;5061427;28;21086;-77
2023/09/13 11:50:42;;;;;;;7.00;6.33;;;26.90;73.10;;;;;;5059699;28;20501;-77
2023/09/13 11:53:20;;;;;;;6.70;5.90;;;26.90;73.10;;;;;;5066236;28;20453;-78
2023/09/13 11:55:54;;;;;;;6.40;5.80;;;27.00;73.00;;;;;;5067517;28;20467;-76
2023/09/13 11:58:32;;;;;;;5.73;5.33;;;27.00;73.00;;;;;;5065978;28;20465;-77
2023/09/13 12:01:10;;;;;;;8.93;6.13;;;27.00;72.90;;;;;;5064175;28;20448;-78
2023/09/13 12:03:40;;;;;;;6.10;5.60;;;27.00;72.80;;;;;;5065591;28;20447;-76
2023/09/13 12:06:12;;;;;;;6.67;6.10;;;27.00;72.80;;;;;;5069976;28;20439;-77
2023/09/13 12:08:59;;;;;;;6.53;5.93;;;27.00;72.70;;;;;;5063585;28;20556;-76
2023/09/13 12:11:33;;;;;;;7.33;6.07;;;27.00;72.70;;;;;;5065777;28;20450;-77
2023/09/13 12:14:09;;;;;;;5.57;5.07;;;27.00;72.70;;;;;;5068797;28;20445;-77
2023/09/13 12:16:50;;;;;;;6.57;6.07;;;27.00;72.70;;;;;;5071303;28;20462;-77
2023/09/13 12:19:20;;;;;;;5.77;5.20;;;27.00;72.60;;;;;;5067299;28;20461;-79
2023/09/13 12:21:49;;;;;;;6.10;5.60;;;27.00;72.70;;;;;;5071253;28;20508;-79
2023/09/13 12:24:21;;;;;;;5.93;5.43;;;27.00;72.50;;;;;;5070420;28;20453;-79
2023/09/13 12:26:53;;;;;;;5.43;4.93;;;27.00;72.60;;;;;;5070138;28;20449;-77
2023/09/13 12:29:24;;;;;;;5.93;5.40;;;27.00;72.60;;;;;;5067006;28;20555;-78
2023/09/13 12:31:57;;;;;;;5.10;4.70;;;26.90;72.60;;;;;;5068177;28;20506;-78
2023/09/13 12:34:26;;;;;;;5.67;5.17;;;26.90;72.50;;;;;;5068916;28;20476;-77
2023/09/13 12:36:56;;;;;;;4.70;4.40;;;27.00;72.40;;;;;;5070985;28;20460;-78
2023/09/13 12:39:25;;;;;;;5.23;4.93;;;27.00;72.10;;;;;;5067065;28;20464;-76
2023/09/13 12:41:53;;;;;;;6.20;5.73;;;27.00;72.20;;;;;;5068771;28;20450;-80
2023/09/13 12:44:23;;;;;;;5.33;4.93;;;27.00;72.20;;;;;;5065886;28;20452;-79
2023/09/13 12:46:52;;;;;;;6.10;4.67;;;27.00;72.20;;;;;;5062234;28;20459;-79
2023/09/13 12:49:21;;;;;;;5.50;4.93;;;27.00;72.20;;;;;;5063600;28;20547;-77
2023/09/13 12:51:51;;;;;;;4.93;4.60;;;27.10;72.10;;;;;;5067449;28;20436;-80
2023/09/13 12:54:19;;;;;;;5.80;5.30;;;27.10;71.90;;;;;;5056206;28;20437;-78
2023/09/13 12:56:47;;;;;;;5.10;4.80;;;27.10;71.80;;;;;;5067268;28;20472;-79
2023/09/13 12:59:16;;;;;;;4.57;4.17;;;27.10;71.90;;;;;;5066585;28;20948;-79